Time;durP1;ratioP1;P1;durP2;ratioP2;P2;SDS_P1;SDS_P2;PMS_P1;PMS_P2;Temp;Humidity;BMP_temperature;BMP_pressure;BME280_temperature;BME280_humidity;BME280_pressure;Samples;Min_cycle;Max_cycle;Signal;HPM_P1;HPM_P2
2022/12/27 00:01:55;;;;;;;25.25;5.68;;;9.00;99.90;;;9.29;76.94;101961.94;5035692;28;20579;-64
2022/12/27 00:04:24;;;;;;;21.70;5.85;;;9.00;99.90;;;9.23;76.60;101951.31;5035944;28;20053;-64
2022/12/27 00:06:54;;;;;;;18.63;5.55;;;9.10;99.90;;;9.27;76.35;101958.38;5034467;28;20052;-64
2022/12/27 00:09:23;;;;;;;23.25;5.65;;;9.10;99.90;;;9.33;76.57;101963.78;5035967;28;20080;-64
2022/12/27 00:11:51;;;;;;;21.75;5.68;;;9.10;99.90;;;9.31;77.28;101965.50;5035650;28;20124;-64
2022/12/27 00:14:27;;;;;;;22.92;5.63;;;9.10;99.90;;;9.22;76.79;101961.81;5035571;28;20064;-64
2022/12/27 00:16:55;;;;;;;16.00;5.93;;;9.00;99.90;;;9.29;76.39;101961.94;5035730;28;20252;-64
2022/12/27 00:19:24;;;;;;;21.50;6.88;;;9.10;99.90;;;9.36;76.16;101961.22;5035668;28;20061;-64
2022/12/27 00:21:54;;;;;;;25.15;6.07;;;9.10;99.90;;;9.37;75.45;101962.97;5035407;28;20521;-64
2022/12/27 00:24:22;;;;;;;17.40;5.72;;;9.20;99.90;;;9.07;75.75;101943.97;5035617;28;20048;-64
2022/12/27 00:26:51;;;;;;;21.75;6.03;;;9.10;99.90;;;9.12;75.57;101934.34;5035578;28;20499;-64
2022/12/27 00:29:19;;;;;;;18.83;5.50;;;9.10;99.90;;;9.42;75.58;101971.91;5035478;28;20046;-64
2022/12/27 00:31:48;;;;;;;20.73;6.55;;;9.20;99.90;;;9.44;74.91;101962.25;5035483;28;20072;-65
2022/12/27 00:34:16;;;;;;;14.25;5.50;;;9.20;99.90;;;9.40;74.58;101967.44;5035115;28;20495;-64
2022/12/27 00:36:45;;;;;;;18.73;6.05;;;9.20;99.90;;;9.21;74.96;101945.13;5035106;28;20049;-64
2022/12/27 00:39:14;;;;;;;13.82;5.72;;;9.10;99.90;;;9.42;74.86;101974.53;5035025;28;20072;-65
2022/12/27 00:41:43;;;;;;;17.33;5.72;;;9.10;99.90;;;9.33;74.18;101945.31;5035048;28;20052;-64
2022/12/27 00:44:11;;;;;;;15.00;5.00;;;9.30;99.90;;;9.40;74.32;101960.41;5035042;28;20033;-64
2022/12/27 00:46:40;;;;;;;15.60;5.35;;;9.30;99.90;;;9.52;73.55;101975.59;5034925;28;20663;-64
2022/12/27 00:49:08;;;;;;;18.15;4.90;;;9.30;99.90;;;9.55;73.28;101976.53;5035203;28;20124;-64
2022/12/27 00:51:37;;;;;;;13.05;4.97;;;9.40;99.90;;;9.62;73.31;101981.03;5034787;28;20053;-64
2022/12/27 00:54:06;;;;;;;24.40;5.93;;;9.40;99.90;;;9.59;73.43;101969.53;5034872;28;20112;-65
2022/12/27 00:56:36;;;;;;;15.73;5.40;;;9.40;99.90;;;9.62;73.79;101980.16;5034741;28;20116;-64
2022/12/27 00:59:05;;;;;;;19.63;6.17;;;9.40;99.90;;;9.73;73.45;101984.78;5034730;28;20057;-65
2022/12/27 01:01:36;;;;;;;23.02;5.75;;;9.50;99.90;;;9.75;73.48;101990.06;5034830;28;20124;-64
2022/12/27 01:04:05;;;;;;;20.92;5.28;;;9.50;99.90;;;9.73;73.85;101987.41;5034817;28;20048;-64
2022/12/27 01:06:35;;;;;;;14.23;5.38;;;9.60;99.90;;;9.78;74.27;101988.38;5034835;28;20054;-64
2022/12/27 01:09:04;;;;;;;17.67;5.22;;;9.60;99.90;;;9.73;74.15;101979.50;5034606;28;20048;-64
2022/12/27 01:11:35;;;;;;;20.92;5.93;;;9.60;99.90;;;9.71;74.60;101988.25;5034393;28;20046;-64
2022/12/27 01:14:04;;;;;;;;;;;9.60;99.90;;;9.75;74.91;102000.66;5034917;28;20048;-64
2022/12/27 01:16:34;;;;;;;19.67;6.45;;;9.60;99.90;;;9.66;75.18;101995.19;5034586;28;20051;-64
2022/12/27 01:19:03;;;;;;;21.48;5.95;;;9.50;99.90;;;9.71;75.25;101999.72;5034458;28;20060;-64
2022/12/27 01:21:31;;;;;;;18.17;6.00;;;9.50;99.90;;;9.76;75.24;102008.59;5049795;28;20080;-64
2022/12/27 01:24:00;;;;;;;21.83;5.97;;;9.60;99.90;;;9.63;75.22;101985.47;5034247;28;20096;-64
2022/12/27 01:26:28;;;;;;;15.63;5.88;;;9.60;99.90;;;9.76;75.71;102020.91;5034221;28;20053;-65
2022/12/27 01:28:58;;;;;;;20.55;6.05;;;9.60;99.90;;;9.66;75.68;101993.44;5049802;28;20479;-65
2022/12/27 01:31:28;;;;;;;20.23;6.07;;;9.60;99.90;;;9.72;75.97;102019.97;5034323;28;20471;-64
2022/12/27 01:33:58;;;;;;;19.15;6.07;;;9.50;99.90;;;9.70;76.17;102026.97;5034337;28;20119;-64
2022/12/27 01:36:29;;;;;;;18.58;6.10;;;9.50;99.90;;;9.73;76.04;102027.06;5034037;28;20124;-64
2022/12/27 01:38:59;;;;;;;15.18;5.60;;;9.50;99.90;;;9.58;75.75;101994.19;5034362;28;20067;-64
2022/12/27 01:44:53;;;;;;;16.10;5.25;;;9.50;99.90;;;9.69;75.80;102033.13;5033842;28;20132;-64
2022/12/27 01:47:31;;;;;;;20.60;5.10;;;9.60;99.90;;;9.71;75.90;102033.16;5032819;28;20050;-64
2022/12/27 01:50:14;;;;;;;19.90;5.50;;;9.60;99.90;;;9.63;76.06;102034.75;5033797;28;20463;-64
2022/12/27 01:52:49;;;;;;;22.20;5.70;;;9.50;99.90;;;9.34;75.98;102002.53;5033726;28;20054;-64
2022/12/27 01:55:25;;;;;;;16.92;5.65;;;9.40;99.90;;;9.06;75.96;101961.53;5033594;28;20136;-64
2022/12/27 01:57:58;;;;;;;18.77;5.45;;;9.30;99.90;;;9.36;75.81;102035.16;5033935;28;20446;-64
2022/12/27 02:00:28;;;;;;;14.65;5.45;;;9.30;99.90;;;9.40;76.24;102046.66;5034194;28;20041;-64
2022/12/27 02:02:57;;;;;;;16.08;5.85;;;9.20;99.90;;;9.50;76.02;102054.78;5033506;28;20512;-64
2022/12/27 02:05:27;;;;;;;12.52;5.30;;;9.30;99.90;;;9.27;76.53;102023.53;5033749;28;20057;-64
2022/12/27 02:08:09;;;;;;;17.60;4.97;;;9.30;99.90;;;9.39;76.17;102052.81;5033643;28;20041;-64
2022/12/27 02:10:38;;;;;;;21.20;5.35;;;9.20;99.90;;;9.42;76.06;102061.69;5033743;28;20052;-64
2022/12/27 02:13:07;;;;;;;19.48;5.82;;;9.30;99.90;;;9.35;76.29;102058.91;5033361;28;20045;-64
2022/12/27 02:15:37;;;;;;;17.42;5.47;;;9.30;99.90;;;9.07;76.74;102025.78;5033344;28;20546;-65
2022/12/27 02:18:06;;;;;;;18.65;5.82;;;9.20;99.90;;;9.29;76.84;102061.41;5033607;28;20046;-64
2022/12/27 02:20:54;;;;;;;18.08;4.75;;;9.10;99.90;;;9.37;76.45;102075.66;5033376;28;20471;-64
2022/12/27 02:24:18;;;;;;;18.77;4.90;;;9.20;99.90;;;9.29;76.27;102062.28;5032982;28;20129;-64
2022/12/27 02:26:52;;;;;;;19.83;5.32;;;9.20;99.90;;;9.24;76.46;102070.97;4997540;28;20089;-64
2022/12/27 02:29:59;;;;;;;16.70;5.07;;;9.10;99.90;;;9.12;76.02;102049.63;5033640;28;20050;-64
2022/12/27 02:32:33;;;;;;;23.50;5.53;;;9.20;99.90;;;9.16;75.54;102054.06;4991605;28;20559;-64
2022/12/27 02:35:13;;;;;;;18.90;5.40;;;9.10;99.90;;;8.96;75.70;102035.22;4991692;28;20497;-64
2022/12/27 02:37:47;;;;;;;19.70;6.00;;;9.10;99.90;;;9.14;75.84;102072.53;5017233;28;20129;-64
2022/12/27 02:55:09;;;;;;;17.70;5.20;;;9.10;99.90;;;9.18;76.22;102084.94;5032792;28;20084;-64
2022/12/27 02:57:45;;;;;;;18.02;5.93;;;9.10;99.90;;;9.27;76.24;102092.16;5031861;28;20112;-64
2022/12/27 03:03:38;;;;;;;16.55;5.05;;;9.20;99.90;;;9.16;75.63;102059.34;5033025;28;20050;-64
2022/12/27 03:06:45;;;;;;;22.83;5.65;;;9.20;99.90;;;9.35;75.54;102094.09;5032586;28;20411;-64
2022/12/27 03:16:01;;;;;;;15.15;5.43;;;9.20;99.90;;;9.09;75.98;102101.50;5032645;28;20037;-64
2022/12/27 03:19:05;;;;;;;20.88;6.45;;;9.00;99.90;;;9.19;75.68;102104.31;5032673;28;20077;-64
2022/12/27 03:27:18;;;;;;;16.73;4.93;;;9.10;99.90;;;9.33;75.53;102110.78;5048166;28;20049;-63
2022/12/27 03:35:39;;;;;;;13.65;5.03;;;9.10;99.90;;;9.17;75.28;102108.66;5036138;28;20050;-64
2022/12/27 03:38:11;;;;;;;18.63;5.82;;;9.10;99.90;;;9.25;75.22;102123.81;5035369;28;20400;-63
2022/12/27 03:43:38;;;;;;;14.88;5.32;;;9.00;99.90;;;9.05;74.67;102126.03;5036488;28;20049;-64
2022/12/27 03:46:37;;;;;;;18.30;5.15;;;9.00;99.90;;;9.06;74.99;102138.34;5036399;28;20060;-64
2022/12/27 03:49:20;;;;;;;13.52;4.97;;;9.00;99.90;;;8.96;74.87;102120.53;5036269;28;20049;-64
2022/12/27 03:51:55;;;;;;;15.25;5.10;;;8.90;99.90;;;9.06;74.62;102126.91;5036071;28;20079;-63
2022/12/27 03:54:28;;;;;;;16.05;5.57;;;9.00;99.90;;;9.01;74.83;102137.38;5036399;28;20041;-63
2022/12/27 03:56:59;;;;;;;20.70;5.07;;;8.90;99.90;;;8.94;74.92;102108.19;5036188;28;20052;-65
2022/12/27 03:59:28;;;;;;;16.65;5.40;;;9.00;99.90;;;9.12;74.87;102127.03;5036886;28;20172;-63
2022/12/27 04:01:59;;;;;;;15.52;5.32;;;9.00;99.90;;;9.17;75.06;102125.41;5037327;28;20444;-63
2022/12/27 04:04:28;;;;;;;11.63;4.75;;;9.00;99.90;;;9.14;74.49;102121.81;5036151;28;20140;-63
2022/12/27 04:06:57;;;;;;;14.57;5.13;;;9.00;99.90;;;9.15;74.53;102119.19;5036766;28;20072;-63
2022/12/27 04:34:43;;;;;;;15.52;4.70;;;9.00;99.90;;;9.14;75.60;102138.53;5035521;28;20407;-64
2022/12/27 04:37:14;;;;;;;21.08;5.30;;;9.00;99.90;;;9.16;75.77;102134.16;5035452;28;20410;-63
2022/12/27 04:54:55;;;;;;;14.65;5.05;;;9.00;99.90;;;9.20;75.67;102138.66;5035101;28;20048;-63
2022/12/27 04:56:33;;;;;;;19.98;5.70;;;8.90;99.90;;;8.16;75.38;101980.66;5035149;28;20455;-64
2022/12/27 05:02:04;;;;;;;13.90;5.82;;;8.90;99.90;;;9.06;75.80;102148.00;5035002;28;20379;-64
2022/12/27 05:04:35;;;;;;;14.90;5.18;;;8.90;99.90;;;9.03;75.62;102143.59;5034602;28;20483;-64
2022/12/27 05:15:19;;;;;;;12.75;4.93;;;8.90;99.90;;;8.95;75.70;102153.06;5022735;28;20431;-64
2022/12/27 05:17:47;;;;;;;13.25;5.40;;;8.80;99.90;;;8.92;75.36;102147.69;5034285;28;20091;-63
2022/12/27 05:20:16;;;;;;;12.70;5.20;;;8.80;99.90;;;9.04;75.40;102160.28;5033381;28;20387;-63
2022/12/27 05:25:37;;;;;;;12.98;5.18;;;8.90;99.90;;;9.02;75.12;102149.69;5033339;28;20463;-64
2022/12/27 05:28:11;;;;;;;16.48;5.72;;;8.90;99.90;;;9.04;74.91;102161.19;5034228;28;20095;-64
2022/12/27 05:30:41;;;;;;;12.95;5.38;;;8.90;99.90;;;9.11;74.99;102159.59;5034246;28;20056;-63
2022/12/27 05:33:10;;;;;;;14.43;5.45;;;9.00;99.90;;;9.10;75.02;102156.03;5034312;28;20179;-64
2022/12/27 05:35:39;;;;;;;15.80;5.15;;;9.00;99.90;;;8.96;75.07;102115.25;5033220;28;20434;-65
2022/12/27 05:38:07;;;;;;;21.35;5.15;;;9.00;99.90;;;9.23;74.70;102164.25;5033993;28;20084;-64
2022/12/27 05:40:36;;;;;;;12.95;5.63;;;9.00;99.90;;;9.21;74.83;102161.56;5033947;28;20041;-64
2022/12/27 05:43:05;;;;;;;17.42;5.10;;;9.00;99.90;;;9.18;74.99;102174.69;5034211;28;20061;-64
2022/12/27 05:45:34;;;;;;;19.65;5.72;;;9.00;99.90;;;9.26;75.09;102173.09;5033740;28;20041;-64
2022/12/27 05:48:06;;;;;;;18.70;5.35;;;9.00;99.90;;;9.36;74.74;102183.03;5033889;28;20092;-64
2022/12/27 05:50:34;;;;;;;18.02;4.90;;;9.10;99.90;;;9.33;74.49;102182.94;5033778;28;20149;-64
2022/12/27 05:53:12;;;;;;;18.40;5.72;;;9.20;99.90;;;9.38;74.51;102183.03;5033998;28;20053;-64
2022/12/27 05:55:41;;;;;;;16.58;5.20;;;9.20;99.90;;;9.37;74.42;102187.44;5033679;28;20402;-65
2022/12/27 05:58:10;;;;;;;17.75;5.30;;;9.20;99.90;;;9.48;74.17;102199.13;5033172;28;20053;-63
2022/12/27 06:00:39;;;;;;;12.82;4.93;;;9.30;99.90;;;9.49;74.14;102192.97;5033792;28;20092;-64
2022/12/27 06:03:08;;;;;;;12.55;5.03;;;9.30;99.90;;;9.45;73.69;102183.19;5032516;28;20446;-64
2022/12/27 06:05:37;;;;;;;15.23;5.00;;;9.30;99.90;;;9.43;73.75;102187.56;5033275;28;20050;-63
2022/12/27 06:08:06;;;;;;;15.63;5.05;;;9.30;99.90;;;9.45;73.67;102185.84;5033645;28;20128;-63
2022/12/27 06:10:34;;;;;;;16.73;5.22;;;9.30;99.90;;;9.47;73.54;102196.44;5033342;28;20041;-64
2022/12/27 06:13:04;;;;;;;13.65;5.25;;;9.30;99.90;;;9.40;74.15;102187.50;5033388;28;20403;-63
2022/12/27 06:15:33;;;;;;;14.00;6.22;;;9.20;99.90;;;9.42;73.91;102185.78;5033347;28;20111;-63
2022/12/27 06:18:03;;;;;;;14.18;6.07;;;9.20;99.90;;;9.43;74.67;102198.13;5033512;28;20083;-63
2022/12/27 06:20:31;;;;;;;17.33;5.85;;;9.20;99.90;;;9.42;74.48;102201.63;5031929;28;20067;-63
2022/12/27 06:23:00;;;;;;;15.90;5.47;;;9.20;99.90;;;9.42;74.66;102206.91;5033258;28;20045;-63
2022/12/27 06:25:29;;;;;;;12.23;5.50;;;9.10;99.90;;;9.30;75.03;102200.47;5033302;28;20052;-63
2022/12/27 06:27:58;;;;;;;13.63;5.20;;;9.10;99.90;;;9.35;75.04;102204.97;5033448;28;20400;-64
2022/12/27 06:30:26;;;;;;;14.80;5.28;;;9.10;99.90;;;8.53;74.50;102058.88;5033101;28;20115;-63
2022/12/27 06:33:04;;;;;;;15.02;6.40;;;9.10;99.90;;;9.13;74.50;102163.16;5033177;28;20053;-63
2022/12/27 06:35:33;;;;;;;17.08;5.57;;;9.10;99.90;;;9.42;74.16;102211.31;5033055;28;20060;-63
2022/12/27 06:38:01;;;;;;;20.65;5.65;;;9.10;99.90;;;9.43;74.04;102213.06;5032026;28;20466;-63
2022/12/27 06:40:29;;;;;;;17.33;6.03;;;9.10;99.90;;;9.37;74.11;102218.25;5033228;28;20037;-64
2022/12/27 06:42:58;;;;;;;15.60;5.53;;;9.10;99.90;;;9.09;73.78;102171.84;5031966;28;20423;-63
2022/12/27 06:45:26;;;;;;;12.73;5.43;;;9.10;99.90;;;9.33;73.56;102217.25;5032918;28;20048;-63
2022/12/27 06:47:55;;;;;;;14.75;5.47;;;9.10;99.90;;;9.29;73.80;102240.94;5032932;28;20044;-63
2022/12/27 06:50:24;;;;;;;18.25;6.20;;;9.10;99.90;;;9.46;73.68;102231.63;5032946;28;20108;-63
2022/12/27 06:52:53;;;;;;;13.35;5.28;;;9.10;99.90;;;9.46;73.24;102218.44;5032883;28;20042;-63
2022/12/27 06:55:22;;;;;;;11.25;5.22;;;9.20;99.90;;;9.34;73.26;102213.78;5033373;28;20038;-63
2022/12/27 06:57:51;;;;;;;15.25;5.40;;;9.10;99.90;;;9.03;73.31;102174.34;5032807;28;20045;-64
2022/12/27 07:00:20;;;;;;;16.40;5.90;;;9.10;99.90;;;9.35;73.68;102219.97;5033028;28;20080;-63
2022/12/27 07:02:49;;;;;;;14.73;5.40;;;9.10;99.90;;;9.11;73.63;102180.69;5031650;28;20100;-63
2022/12/27 07:05:17;;;;;;;14.95;5.60;;;9.00;99.90;;;9.24;74.34;102219.69;5032307;28;20034;-63
2022/12/27 07:07:48;;;;;;;12.65;5.70;;;8.90;99.90;;;9.22;74.33;102225.78;5034008;28;20420;-63
2022/12/27 07:10:17;;;;;;;16.02;5.95;;;8.90;99.90;;;8.97;74.60;102190.03;5036716;28;20052;-63
2022/12/27 07:12:45;;;;;;;15.32;5.32;;;8.90;99.90;;;8.96;75.08;102204.09;5036628;28;20103;-63
2022/12/27 07:15:14;;;;;;;17.40;5.65;;;8.90;99.90;;;9.09;75.64;102224.66;5036810;28;20077;-63
2022/12/27 07:17:44;;;;;;;16.80;5.55;;;8.80;99.90;;;8.99;76.70;102217.34;5036535;28;20474;-63
2022/12/27 07:20:13;;;;;;;15.48;6.53;;;8.80;99.90;;;8.99;76.96;102233.19;5036638;28;20099;-63
2022/12/27 07:22:41;;;;;;;17.83;6.07;;;8.80;99.90;;;8.88;77.45;102235.56;5036610;28;20471;-63
2022/12/27 07:25:11;;;;;;;17.45;6.50;;;8.70;99.90;;;8.70;77.97;102227.22;5035254;28;20050;-62
2022/12/27 07:27:39;;;;;;;19.95;6.47;;;8.60;99.90;;;8.76;78.53;102237.03;5036756;28;20049;-64
2022/12/27 07:30:10;;;;;;;14.75;6.05;;;8.60;99.90;;;8.68;78.46;102249.13;5035369;28;20451;-64
2022/12/27 07:32:38;;;;;;;18.67;6.55;;;8.50;99.90;;;8.45;78.58;102216.00;5035399;28;20084;-63
2022/12/27 07:35:07;;;;;;;21.42;7.38;;;8.40;99.90;;;8.59;79.03;102248.91;5036240;28;20037;-63
2022/12/27 07:37:37;;;;;;;21.55;6.90;;;8.40;99.90;;;8.49;79.12;102258.31;5036530;28;20044;-63
2022/12/27 07:40:07;;;;;;;15.32;6.35;;;8.30;99.90;;;7.66;79.42;102111.13;5036468;28;20061;-63
2022/12/27 07:42:37;;;;;;;13.30;6.85;;;8.20;99.90;;;8.33;79.53;102227.13;5036224;28;20125;-63
2022/12/27 07:45:07;;;;;;;21.50;6.25;;;8.30;99.90;;;8.43;80.11;102247.59;5035052;28;20046;-63
2022/12/27 07:47:36;;;;;;;19.65;6.18;;;8.20;99.90;;;8.38;80.59;102243.06;5036074;28;20041;-63
2022/12/27 07:50:05;;;;;;;19.40;6.38;;;8.20;99.90;;;8.25;80.96;102225.13;5034728;28;20458;-64
2022/12/27 07:52:34;;;;;;;16.65;6.72;;;8.20;99.90;;;8.36;81.01;102247.41;5034770;28;20148;-62
2022/12/27 07:55:02;;;;;;;19.98;5.63;;;8.10;99.90;;;8.34;81.54;102243.84;5035834;28;20051;-62
2022/12/27 07:57:32;;;;;;;17.63;5.63;;;8.10;99.90;;;8.32;82.14;102246.44;5035807;28;20045;-63
2022/12/27 08:00:03;;;;;;;21.95;6.38;;;8.10;99.90;;;8.05;81.86;102185.91;5034827;28;20053;-63
2022/12/27 08:02:39;;;;;;;23.48;7.07;;;8.10;99.90;;;8.33;81.96;102240.28;5035762;28;20407;-63
2022/12/27 08:05:08;;;;;;;19.15;6.57;;;8.10;99.90;;;8.13;82.06;102196.66;5035558;28;20045;-62
2022/12/27 08:07:38;;;;;;;18.88;6.43;;;8.20;99.90;;;8.42;82.21;102247.56;5036020;28;20068;-63
2022/12/27 08:10:08;;;;;;;27.33;7.43;;;8.20;99.90;;;8.49;81.89;102249.50;5035659;28;20045;-63
2022/12/27 08:12:36;;;;;;;17.13;6.75;;;8.30;99.90;;;8.48;81.91;102240.69;5051204;28;20136;-62
2022/12/27 08:15:08;;;;;;;25.15;6.43;;;8.30;99.90;;;8.52;82.04;102250.47;5035789;28;20106;-63
2022/12/27 08:17:36;;;;;;;23.95;6.32;;;8.40;99.90;;;8.54;81.74;102255.78;5035725;28;20473;-63
2022/12/27 08:20:06;;;;;;;18.63;6.65;;;8.30;99.90;;;8.57;81.78;102246.22;5034588;28;20084;-62
2022/12/27 08:22:34;;;;;;;16.00;6.13;;;8.40;99.90;;;8.72;81.61;102258.91;5035346;28;20045;-62
2022/12/27 08:25:03;;;;;;;20.35;6.85;;;8.50;99.90;;;8.79;81.85;102250.28;5035196;28;20311;-62
2022/12/27 08:27:32;;;;;;;17.67;6.20;;;8.70;99.90;;;9.04;81.51;102263.22;5034255;28;20045;-63
2022/12/27 08:30:01;;;;;;;18.75;6.57;;;8.80;99.90;;;9.23;80.92;102262.81;5035291;28;20148;-63
2022/12/27 08:32:31;;;;;;;18.92;6.82;;;9.00;99.90;;;9.40;80.86;102260.56;5034199;28;20072;-62
2022/12/27 08:34:59;;;;;;;16.50;6.03;;;9.20;99.90;;;9.56;80.23;102258.28;5035979;28;20447;-63
2022/12/27 08:37:48;;;;;;;16.52;6.32;;;9.40;99.90;;;9.81;79.00;102257.94;5035332;28;20491;-63
2022/12/27 08:40:18;;;;;;;23.98;6.88;;;9.60;99.90;;;9.94;78.06;102265.28;5035607;28;20038;-64
2022/12/27 08:42:47;;;;;;;;;;;9.80;99.90;;;10.13;77.80;102263.91;5035528;28;20050;-64
2022/12/27 08:45:15;;;;;;;17.63;5.97;;;10.00;99.90;;;10.33;77.23;102257.28;5033899;28;20350;-65
2022/12/27 08:47:45;;;;;;;19.42;6.10;;;10.10;99.90;;;10.55;76.44;102258.56;5034825;28;20048;-65
2022/12/27 08:50:14;;;;;;;19.38;6.45;;;10.30;99.90;;;10.63;75.51;102259.56;5034795;28;20049;-66
2022/12/27 08:52:42;;;;;;;17.27;5.80;;;10.40;99.90;;;10.75;74.68;102260.69;5034756;28;20521;-65
2022/12/27 08:55:11;;;;;;;14.77;5.88;;;10.60;99.90;;;10.93;74.16;102254.81;5034848;28;20228;-63
2022/12/27 08:57:39;;;;;;;15.40;6.00;;;10.70;99.90;;;11.10;73.27;102255.06;5034701;28;20055;-63
2022/12/27 09:00:10;;;;;;;14.02;5.80;;;10.90;99.90;;;10.98;72.29;102245.16;5034662;28;20048;-63
2022/12/27 09:02:38;;;;;;;13.40;5.82;;;10.90;99.90;;;9.91;71.99;102053.78;5034767;28;20041;-63
2022/12/27 09:05:09;;;;;;;13.82;5.90;;;11.00;99.90;;;11.09;71.93;102267.41;5033575;28;20128;-64
2022/12/27 09:07:37;;;;;;;12.50;5.72;;;10.90;99.90;;;11.18;71.62;102280.81;5033436;28;20491;-63
2022/12/27 09:10:07;;;;;;;20.58;6.20;;;11.00;99.90;;;11.23;71.65;102288.81;5034503;28;20037;-63
2022/12/27 09:12:36;;;;;;;20.20;7.20;;;11.00;99.90;;;11.28;71.42;102284.50;5034510;28;20037;-63
2022/12/27 09:15:06;;;;;;;18.77;7.30;;;11.10;99.90;;;11.24;71.37;102265.03;5034372;28;20034;-63
2022/12/27 09:17:34;;;;;;;13.73;7.07;;;11.10;99.90;;;11.21;71.36;102266.69;5034302;28;20487;-63
2022/12/27 09:20:04;;;;;;;19.15;7.15;;;11.10;99.90;;;11.27;71.50;102267.69;5034465;28;20041;-63
2022/12/27 09:22:34;;;;;;;18.13;7.55;;;11.20;99.90;;;11.49;70.80;102269.81;5034485;28;20439;-63
2022/12/27 09:25:03;;;;;;;16.83;6.63;;;11.40;99.90;;;11.57;70.38;102259.31;5034340;28;20133;-63
2022/12/27 09:27:31;;;;;;;24.98;7.10;;;11.50;99.90;;;11.82;70.29;102272.06;5034110;28;20069;-64
2022/12/27 09:30:00;;;;;;;16.58;7.10;;;11.70;99.90;;;12.08;69.56;102275.91;5034106;28;20049;-63
2022/12/27 09:32:29;;;;;;;17.58;6.35;;;11.90;99.90;;;11.71;69.35;102212.72;5033238;28;20060;-63
2022/12/27 09:34:57;;;;;;;14.52;6.18;;;12.00;99.90;;;12.24;68.44;102261.97;5033788;28;20061;-64
2022/12/27 09:37:25;;;;;;;15.80;5.85;;;12.20;99.90;;;11.73;68.05;102153.53;5034068;28;20381;-63
2022/12/27 09:39:56;;;;;;;18.33;5.70;;;12.20;99.90;;;12.45;67.78;102263.94;5033951;28;20041;-64
2022/12/27 09:42:37;;;;;;;19.67;6.65;;;12.40;99.90;;;12.60;66.90;102290.66;5033990;28;20049;-63
2022/12/27 09:45:34;;;;;;;14.10;6.45;;;12.40;99.90;;;12.66;67.06;102277.41;5034155;28;20045;-64
2022/12/27 09:48:07;;;;;;;16.55;7.10;;;12.50;99.90;;;12.57;66.75;102256.09;5033846;28;20107;-63
2022/12/27 09:50:44;;;;;;;18.33;7.35;;;12.60;99.90;;;12.76;66.33;102289.03;5034059;28;20403;-63
2022/12/27 09:53:20;;;;;;;13.60;7.15;;;12.60;99.90;;;11.54;65.93;102090.56;5033954;28;20045;-64
2022/12/27 09:55:53;;;;;;;15.43;7.45;;;12.40;99.90;;;12.67;66.13;102287.19;5033359;28;20111;-64
2022/12/27 09:58:39;;;;;;;18.40;7.25;;;12.50;99.90;;;12.82;65.64;102305.91;5033365;28;20384;-63
2022/12/27 10:01:34;;;;;;;12.80;6.47;;;12.60;99.90;;;12.81;66.05;102317.44;5033629;28;20053;-63
2022/12/27 10:04:04;;;;;;;14.82;7.05;;;12.60;99.90;;;12.83;65.97;102317.44;5033359;28;20045;-63
2022/12/27 10:07:05;;;;;;;17.03;7.47;;;12.60;99.90;;;12.83;65.63;102282.91;5032170;28;20474;-63
2022/12/27 10:09:50;;;;;;;13.15;7.05;;;12.70;99.90;;;13.02;65.76;102303.44;5032579;28;20042;-63
2022/12/27 10:12:50;;;;;;;18.95;7.45;;;12.90;99.90;;;13.15;65.44;102308.91;5033345;28;20120;-63
2022/12/27 10:15:27;;;;;;;19.17;7.45;;;12.90;99.90;;;13.28;65.25;102315.19;5031279;28;20525;-64
2022/12/27 10:18:12;;;;;;;17.27;6.63;;;13.00;99.90;;;13.15;65.02;102277.03;5033494;28;20052;-64
2022/12/27 10:20:57;;;;;;;15.00;6.45;;;13.10;99.90;;;13.11;64.81;102308.84;5033259;28;20042;-64
2022/12/27 10:23:31;;;;;;;11.82;5.70;;;13.00;99.90;;;13.01;65.55;102297.22;5048807;28;20045;-64
2022/12/27 10:26:03;;;;;;;11.43;6.00;;;12.80;99.90;;;12.86;65.84;102281.16;5033166;28;20056;-63
2022/12/27 10:28:40;;;;;;;13.30;6.63;;;12.70;99.90;;;12.77;66.57;102273.13;5033173;28;20046;-63
2022/12/27 10:31:14;;;;;;;15.52;6.05;;;12.50;99.90;;;12.62;66.57;102270.31;5033495;28;20049;-63
2022/12/27 10:33:44;;;;;;;14.40;6.70;;;12.40;99.90;;;12.61;67.05;102293.31;5033407;28;20088;-64
2022/12/27 10:36:17;;;;;;;13.15;6.03;;;12.30;99.90;;;12.74;67.29;102296.97;5032082;28;20091;-63
2022/12/27 10:38:46;;;;;;;16.23;6.30;;;12.40;99.90;;;11.47;67.03;102083.44;5034349;28;20045;-63
2022/12/27 10:41:33;;;;;;;14.88;6.15;;;12.40;99.90;;;12.61;67.22;102295.97;5034476;28;20049;-64
2022/12/27 10:44:10;;;;;;;14.15;6.70;;;12.30;99.90;;;12.09;67.46;102255.59;5032984;28;20037;-63
2022/12/27 10:46:41;;;;;;;14.38;7.00;;;12.10;99.90;;;11.92;68.09;102268.66;5048534;28;20050;-64
2022/12/27 10:49:26;;;;;;;14.57;6.55;;;11.80;99.90;;;11.36;69.16;102193.66;5032835;28;20090;-64
2022/12/27 10:51:59;;;;;;;17.08;7.05;;;11.70;99.90;;;12.07;69.65;102279.44;5032645;28;20064;-64
2022/12/27 10:54:29;;;;;;;13.65;6.95;;;11.80;99.90;;;12.36;69.44;102285.97;5032908;28;20049;-64
2022/12/27 10:57:17;;;;;;;;;;;12.10;99.90;;;12.40;68.79;102265.66;5032321;28;20045;-64
2022/12/27 11:00:16;;;;;;;14.40;7.47;;;12.30;99.90;;;12.59;68.14;102270.28;5032906;28;19921;-64
2022/12/27 11:02:53;;;;;;;17.25;7.55;;;12.50;99.90;;;12.20;67.96;102191.16;5032750;28;20517;-64
2022/12/27 11:05:24;;;;;;;13.27;7.40;;;12.50;99.90;;;12.57;67.99;102287.97;5032579;28;20042;-64
2022/12/27 11:07:52;;;;;;;13.32;6.28;;;12.40;99.90;;;12.63;68.72;102286.28;5048324;28;20045;-64
2022/12/27 11:10:25;;;;;;;13.60;6.72;;;12.40;99.90;;;12.61;68.54;102273.84;5032772;28;20105;-67
2022/12/27 11:13:02;;;;;;;14.85;6.90;;;12.40;99.90;;;12.48;68.91;102288.78;5033067;28;20084;-65
2022/12/27 11:15:34;;;;;;;14.65;6.40;;;12.30;99.90;;;12.50;69.02;102289.66;5032392;28;20049;-65
2022/12/27 11:18:10;;;;;;;13.80;6.65;;;12.20;99.90;;;12.37;69.80;102284.19;5033009;28;20121;-65
2022/12/27 11:20:43;;;;;;;15.27;6.13;;;12.10;99.90;;;12.02;70.27;102277.63;5032637;28;20052;-64
2022/12/27 11:23:16;;;;;;;13.38;6.72;;;11.90;99.90;;;11.80;71.43;102289.72;5032855;28;20045;-64
2022/12/27 11:25:54;;;;;;;13.98;6.00;;;11.50;99.90;;;11.44;72.92;102283.88;5032502;28;20049;-64
2022/12/27 11:28:33;;;;;;;13.65;7.03;;;11.20;99.90;;;11.19;74.12;102266.69;5032448;28;20046;-64
2022/12/27 11:31:06;;;;;;;14.20;6.22;;;11.00;99.90;;;11.15;75.14;102286.03;5032524;28;20048;-65
2022/12/27 11:33:39;;;;;;;13.60;6.53;;;10.90;99.90;;;11.05;75.86;102247.06;5032623;28;20156;-64
2022/12/27 11:36:11;;;;;;;14.27;6.90;;;10.90;99.90;;;11.26;75.95;102280.94;5032742;28;20049;-63
2022/12/27 11:38:46;;;;;;;12.90;6.60;;;10.90;99.90;;;11.05;76.47;102248.81;5032535;28;20057;-64
2022/12/27 11:41:21;;;;;;;15.90;6.88;;;10.90;99.90;;;8.75;77.05;101834.31;5031446;28;20060;-64
2022/12/27 11:44:02;;;;;;;11.48;6.78;;;10.80;99.90;;;11.23;77.59;102252.63;5032446;28;20100;-64
2022/12/27 11:46:40;;;;;;;14.20;7.30;;;11.00;99.90;;;11.45;77.44;102260.03;5032488;28;20045;-63
2022/12/27 11:49:19;;;;;;;13.95;6.90;;;11.10;99.90;;;11.55;77.24;102263.69;5032375;28;20046;-64
2022/12/27 11:52:05;;;;;;;14.43;7.07;;;11.30;99.90;;;11.53;76.65;102257.50;5047621;28;20073;-64
2022/12/27 11:54:58;;;;;;;14.27;7.45;;;11.30;99.90;;;11.36;76.95;102266.97;5031994;28;20103;-65
2022/12/27 11:57:59;;;;;;;13.85;7.25;;;11.20;99.90;;;11.36;77.33;102265.19;5035906;28;20099;-65
2022/12/27 12:00:35;;;;;;;12.20;7.63;;;11.10;99.90;;;11.26;77.66;102265.94;5036021;28;20057;-65
2022/12/27 12:03:47;;;;;;;18.60;7.60;;;11.00;99.90;;;11.24;78.01;102265.03;5036143;28;20399;-66
2022/12/27 12:06:20;;;;;;;17.13;7.50;;;10.90;99.90;;;11.13;78.13;102240.09;5035767;28;20158;-65
2022/12/27 12:09:28;;;;;;;15.48;7.50;;;11.00;99.90;;;11.38;77.93;102236.09;5036003;28;20044;-64
2022/12/27 12:12:32;;;;;;;13.95;8.05;;;11.10;99.90;;;11.50;77.82;102245.06;5029590;28;20049;-65
2022/12/27 12:15:21;;;;;;;14.18;7.43;;;11.20;99.90;;;11.78;77.51;102238.44;5035511;28;20499;-65
2022/12/27 12:18:59;;;;;;;14.40;7.22;;;11.50;99.90;;;11.89;76.69;102215.56;5035580;28;20107;-65